Time;durP1;ratioP1;P1;durP2;ratioP2;P2;SDS_P1;SDS_P2;PMS_P1;PMS_P2;Temp;Humidity;BMP_temperature;BMP_pressure;BME280_temperature;BME280_humidity;BME280_pressure;Samples;Min_cycle;Max_cycle;Signal;HPM_P1;HPM_P2
2022/09/29 00:00:15;;;;;;;2.45;0.82;;;11.30;99.90;;;;;;5089306;28;20048;-81
2022/09/29 00:02:42;;;;;;;3.55;1.02;;;11.30;99.90;;;;;;5085480;28;20064;-82
2022/09/29 00:05:09;;;;;;;2.55;0.73;;;11.40;99.90;;;;;;5103554;28;20051;-82
2022/09/29 00:07:35;;;;;;;0.95;0.60;;;11.40;99.90;;;;;;5114492;28;20053;-82
2022/09/29 00:10:03;;;;;;;3.40;0.80;;;11.40;99.90;;;;;;5110122;28;20044;-82
2022/09/29 00:12:30;;;;;;;2.65;1.10;;;11.40;99.90;;;;;;5102923;28;20412;-82
2022/09/29 00:14:57;;;;;;;3.58;1.10;;;11.40;99.90;;;;;;5101407;28;20051;-82
2022/09/29 00:17:23;;;;;;;1.52;0.88;;;11.40;99.90;;;;;;5116531;28;20051;-82
2022/09/29 00:19:50;;;;;;;1.88;0.80;;;11.40;99.90;;;;;;5112473;28;20386;-82
2022/09/29 00:22:17;;;;;;;3.72;1.00;;;11.40;99.90;;;;;;5090744;28;20047;-82
2022/09/29 00:24:46;;;;;;;1.70;0.65;;;11.40;99.90;;;;;;5078723;28;20417;-83
2022/09/29 00:27:17;;;;;;;1.70;0.82;;;11.40;99.90;;;;;;5106463;28;20047;-83
2022/09/29 00:29:45;;;;;;;2.15;0.90;;;11.40;99.90;;;;;;5113667;28;20050;-82
2022/09/29 00:32:12;;;;;;;5.00;1.00;;;11.40;99.90;;;;;;5108343;28;20054;-83
2022/09/29 00:34:38;;;;;;;1.83;0.90;;;11.40;99.90;;;;;;5103668;28;20119;-83
2022/09/29 00:37:05;;;;;;;2.65;0.98;;;11.40;99.90;;;;;;5107796;28;20054;-83
2022/09/29 00:39:32;;;;;;;1.80;0.70;;;11.40;99.90;;;;;;5110927;28;20043;-83
2022/09/29 00:41:59;;;;;;;2.05;0.80;;;11.40;99.90;;;;;;5087485;28;20054;-83
2022/09/29 00:44:58;;;;;;;1.63;0.70;;;11.40;99.90;;;;;;5085428;28;20044;-83
2022/09/29 00:47:26;;;;;;;2.55;0.93;;;11.40;99.90;;;;;;5083838;28;20556;-82
2022/09/29 00:49:56;;;;;;;2.35;0.88;;;11.40;99.90;;;;;;5096971;28;20405;-82
2022/09/29 00:52:40;;;;;;;3.70;0.90;;;11.40;99.90;;;;;;5103720;28;20102;-82
2022/09/29 00:55:14;;;;;;;3.00;1.05;;;11.40;99.90;;;;;;5092338;28;20139;-82
2022/09/29 00:58:04;;;;;;;2.08;0.88;;;11.40;99.90;;;;;;5090013;28;20051;-82
2022/09/29 01:00:31;;;;;;;1.48;1.00;;;11.40;99.90;;;;;;5093137;28;20053;-82
2022/09/29 01:03:04;;;;;;;4.40;1.10;;;11.40;99.90;;;;;;5107346;28;20101;-82
2022/09/29 01:05:36;;;;;;;1.95;0.80;;;11.40;99.90;;;;;;5104642;28;20092;-82
2022/09/29 01:08:13;;;;;;;5.43;0.70;;;11.40;99.90;;;;;;5100843;28;20047;-82
2022/09/29 01:10:42;;;;;;;2.97;0.70;;;11.40;99.90;;;;;;5114509;28;20062;-82
2022/09/29 01:13:09;;;;;;;3.22;0.90;;;11.40;99.90;;;;;;5109685;28;20048;-83
2022/09/29 01:15:35;;;;;;;1.38;1.15;;;11.40;99.90;;;;;;5099998;28;20079;-83
2022/09/29 01:18:02;;;;;;;2.55;0.90;;;11.40;99.90;;;;;;5113317;28;20104;-82
2022/09/29 01:20:33;;;;;;;3.58;1.38;;;11.40;99.90;;;;;;5128608;28;20058;-82
2022/09/29 01:23:37;;;;;;;3.97;1.15;;;11.40;99.90;;;;;;5096832;28;20042;-83
2022/09/29 01:26:32;;;;;;;1.27;0.73;;;11.40;99.90;;;;;;5086600;28;20048;-83
2022/09/29 01:29:05;;;;;;;3.13;0.90;;;11.40;99.90;;;;;;5113973;28;20048;-82
2022/09/29 01:31:32;;;;;;;5.72;1.35;;;11.50;99.90;;;;;;5124813;28;20111;-82
2022/09/29 01:33:59;;;;;;;1.88;0.90;;;11.40;99.90;;;;;;5119239;28;20040;-82
2022/09/29 01:36:54;;;;;;;1.90;0.90;;;11.40;99.90;;;;;;5097935;28;20083;-82
2022/09/29 01:39:40;;;;;;;4.07;1.10;;;11.50;99.90;;;;;;5098201;28;20051;-82
2022/09/29 01:42:18;;;;;;;1.33;0.88;;;11.40;99.90;;;;;;5110933;28;20051;-82
2022/09/29 01:45:01;;;;;;;1.77;0.60;;;11.40;99.90;;;;;;5103987;28;20482;-82
2022/09/29 01:47:33;;;;;;;5.60;0.80;;;11.40;99.90;;;;;;5101222;28;20087;-82
2022/09/29 01:50:07;;;;;;;2.58;0.80;;;11.40;99.90;;;;;;5098102;28;20043;-82
2022/09/29 01:52:43;;;;;;;4.70;0.65;;;11.40;99.90;;;;;;5112504;28;20044;-83
2022/09/29 01:55:14;;;;;;;4.22;0.73;;;11.40;99.90;;;;;;5068773;28;20536;-82
2022/09/29 01:57:50;;;;;;;1.23;0.70;;;11.40;99.90;;;;;;5100361;28;20055;-82
2022/09/29 02:00:18;;;;;;;2.83;0.93;;;11.30;99.90;;;;;;5096027;28;20071;-83
2022/09/29 02:02:55;;;;;;;0.68;0.57;;;11.30;99.90;;;;;;5112289;28;20144;-83
2022/09/29 02:05:45;;;;;;;2.50;0.70;;;11.30;99.90;;;;;;5100537;28;20130;-82
2022/09/29 02:08:31;;;;;;;2.72;0.60;;;11.20;99.90;;;;;;5102108;28;20131;-82
2022/09/29 02:11:02;;;;;;;1.20;0.60;;;11.20;99.90;;;;;;5104240;28;20055;-82
2022/09/29 02:13:56;;;;;;;3.28;0.80;;;11.20;99.90;;;;;;5112866;28;20044;-82
2022/09/29 02:16:28;;;;;;;2.17;0.73;;;11.20;99.90;;;;;;5106557;28;20511;-82
2022/09/29 02:19:21;;;;;;;0.68;0.63;;;11.20;99.90;;;;;;5100018;28;20048;-82
2022/09/29 02:21:50;;;;;;;2.83;0.77;;;11.20;99.90;;;;;;5094681;28;20054;-82
2022/09/29 02:24:17;;;;;;;3.85;0.80;;;11.20;99.90;;;;;;5111291;28;20051;-82
2022/09/29 02:26:44;;;;;;;1.55;0.70;;;11.20;99.90;;;;;;5107554;28;20060;-82
2022/09/29 02:29:12;;;;;;;2.70;0.57;;;11.20;99.90;;;;;;5100211;28;20050;-83
2022/09/29 02:31:39;;;;;;;2.65;0.80;;;11.20;99.90;;;;;;5106382;28;20055;-83
2022/09/29 02:34:10;;;;;;;1.70;0.75;;;11.20;99.90;;;;;;5114616;28;20044;-82
2022/09/29 02:36:52;;;;;;;3.10;0.73;;;11.20;99.90;;;;;;5106798;28;20163;-82
2022/09/29 02:39:47;;;;;;;2.00;0.90;;;11.20;99.90;;;;;;5101825;28;20052;-82
2022/09/29 02:42:34;;;;;;;3.75;1.02;;;11.20;99.90;;;;;;5044819;28;20146;-83
2022/09/29 02:45:19;;;;;;;2.25;0.80;;;11.20;99.90;;;;;;5101974;28;20130;-83
2022/09/29 02:47:46;;;;;;;3.03;0.70;;;11.20;99.90;;;;;;5084927;28;20126;-82
2022/09/29 02:50:35;;;;;;;3.83;0.80;;;11.20;99.90;;;;;;5097528;28;20075;-82
2022/09/29 02:53:04;;;;;;;0.60;0.60;;;11.20;99.90;;;;;;5103690;28;20040;-82
2022/09/29 02:55:48;;;;;;;1.47;0.60;;;11.20;99.90;;;;;;5104502;28;20039;-82
2022/09/29 02:58:25;;;;;;;1.92;0.60;;;11.20;99.90;;;;;;5104348;28;20162;-82
2022/09/29 03:00:53;;;;;;;4.95;0.70;;;11.20;99.90;;;;;;5081210;28;20074;-82
2022/09/29 03:03:20;;;;;;;4.18;0.68;;;11.20;99.90;;;;;;5098636;28;20051;-83
2022/09/29 03:05:47;;;;;;;1.35;0.70;;;11.20;99.90;;;;;;5113829;28;20457;-82
2022/09/29 03:08:14;;;;;;;2.20;1.17;;;11.10;99.90;;;;;;5111005;28;20048;-82
2022/09/29 03:10:41;;;;;;;3.83;1.70;;;11.10;99.90;;;;;;5080647;28;20044;-83
2022/09/29 03:13:08;;;;;;;5.85;1.25;;;11.10;99.90;;;;;;5098308;28;20048;-82
2022/09/29 03:15:35;;;;;;;4.05;1.67;;;11.10;99.90;;;;;;5097973;28;20048;-81
2022/09/29 03:18:03;;;;;;;3.28;1.40;;;11.00;99.90;;;;;;5110676;28;20055;-82
2022/09/29 03:20:35;;;;;;;3.05;1.00;;;11.00;99.90;;;;;;5105641;28;20048;-82
2022/09/29 03:23:02;;;;;;;1.15;1.05;;;11.00;99.90;;;;;;5104332;28;20039;-83
2022/09/29 03:25:29;;;;;;;2.60;1.00;;;10.90;99.90;;;;;;5106030;28;20146;-83
2022/09/29 03:27:55;;;;;;;2.55;1.10;;;10.90;99.90;;;;;;5095710;28;20054;-82
2022/09/29 03:30:22;;;;;;;1.67;1.10;;;10.90;99.90;;;;;;5087732;28;20053;-82
2022/09/29 03:32:51;;;;;;;8.02;1.33;;;10.90;99.90;;;;;;5083776;28;20048;-82
2022/09/29 03:35:17;;;;;;;3.45;1.20;;;10.90;99.90;;;;;;5108768;28;20107;-82
2022/09/29 03:37:44;;;;;;;4.50;1.00;;;10.90;99.90;;;;;;5095265;28;20093;-82
2022/09/29 03:40:11;;;;;;;1.83;1.20;;;10.80;99.90;;;;;;5086106;28;20512;-83
2022/09/29 03:42:38;;;;;;;1.98;1.10;;;10.90;99.90;;;;;;5104093;28;20055;-82
2022/09/29 03:45:05;;;;;;;2.53;0.90;;;10.90;99.90;;;;;;5104104;28;20130;-81
2022/09/29 03:47:32;;;;;;;1.40;0.88;;;10.90;99.90;;;;;;5096553;28;20489;-82
2022/09/29 03:49:58;;;;;;;3.25;1.08;;;10.90;99.90;;;;;;5098437;28;20606;-82
2022/09/29 03:52:25;;;;;;;10.30;1.05;;;10.90;99.90;;;;;;5101792;28;20112;-82
2022/09/29 03:54:52;;;;;;;2.40;1.00;;;10.90;99.90;;;;;;5101538;28;20044;-82
2022/09/29 03:57:19;;;;;;;4.95;1.33;;;10.90;99.90;;;;;;5113074;28;20511;-82
2022/09/29 03:59:45;;;;;;;1.73;1.35;;;10.90;99.90;;;;;;5093977;28;20047;-82
2022/09/29 04:02:13;;;;;;;8.02;5.20;;;10.90;99.90;;;;;;5108467;28;20135;-83
2022/09/29 04:04:40;;;;;;;6.50;3.88;;;10.90;99.90;;;;;;5100226;28;20409;-82
2022/09/29 04:07:07;;;;;;;4.65;3.08;;;10.90;99.90;;;;;;5090023;28;20457;-83
2022/09/29 04:09:33;;;;;;;7.00;2.38;;;10.90;99.90;;;;;;5095746;28;20104;-82
2022/09/29 04:12:00;;;;;;;3.53;2.03;;;10.90;99.90;;;;;;5108411;28;20044;-82
2022/09/29 04:14:27;;;;;;;4.28;2.45;;;10.90;99.90;;;;;;5103635;28;20051;-83
2022/09/29 04:16:53;;;;;;;3.65;2.13;;;10.90;99.90;;;;;;5105493;28;20043;-82
2022/09/29 04:19:21;;;;;;;3.67;1.67;;;10.90;99.90;;;;;;5116832;28;20048;-82
2022/09/29 04:21:48;;;;;;;2.45;1.27;;;10.90;99.90;;;;;;5110106;28;20052;-82
2022/09/29 04:24:14;;;;;;;2.25;1.23;;;10.90;99.90;;;;;;5105031;28;20056;-82
2022/09/29 04:26:41;;;;;;;1.60;1.10;;;10.90;99.90;;;;;;5099054;28;20052;-82
2022/09/29 04:29:09;;;;;;;2.33;1.40;;;10.90;99.90;;;;;;5103209;28;20261;-82
2022/09/29 04:31:36;;;;;;;3.55;1.33;;;10.90;99.90;;;;;;5090948;28;20055;-82
2022/09/29 04:34:02;;;;;;;6.78;1.27;;;10.90;99.90;;;;;;5101346;28;20067;-82
2022/09/29 04:36:29;;;;;;;4.38;1.95;;;10.90;99.90;;;;;;5101350;28;20044;-82
2022/09/29 04:38:56;;;;;;;2.60;2.10;;;11.00;99.90;;;;;;5110923;28;20044;-82
2022/09/29 04:41:22;;;;;;;3.28;2.40;;;11.00;99.90;;;;;;5113562;28;20048;-83
2022/09/29 04:43:49;;;;;;;6.00;2.65;;;11.00;99.90;;;;;;5106738;28;20393;-82
2022/09/29 04:46:16;;;;;;;4.32;3.10;;;10.90;99.90;;;;;;5095977;28;20093;-82
2022/09/29 04:48:43;;;;;;;6.40;3.35;;;11.00;99.90;;;;;;5102657;28;20075;-83
2022/09/29 04:51:09;;;;;;;10.40;6.80;;;11.00;99.90;;;;;;5112261;28;20507;-82
2022/09/29 04:53:36;;;;;;;13.98;6.63;;;11.00;99.90;;;;;;5106225;28;20031;-84
2022/09/29 04:56:07;;;;;;;8.27;5.00;;;11.00;99.90;;;;;;5127594;28;20060;-84
2022/09/29 04:58:34;;;;;;;5.18;4.07;;;11.00;99.90;;;;;;5124256;28;20091;-84
2022/09/29 05:01:09;;;;;;;8.18;3.55;;;11.00;99.90;;;;;;5128527;28;20059;-83
2022/09/29 05:03:36;;;;;;;6.53;4.35;;;11.00;99.90;;;;;;5109204;28;20061;-83
2022/09/29 05:06:03;;;;;;;6.05;3.92;;;11.00;99.90;;;;;;5108768;28;20157;-83
2022/09/29 05:08:30;;;;;;;5.10;2.38;;;11.00;99.90;;;;;;5089190;28;20459;-83
2022/09/29 05:10:56;;;;;;;3.97;1.70;;;11.00;99.90;;;;;;5115672;28;20055;-81
2022/09/29 05:13:23;;;;;;;3.75;1.90;;;11.00;99.90;;;;;;5108747;28;20048;-83
2022/09/29 05:15:54;;;;;;;5.43;2.10;;;11.00;99.90;;;;;;5106079;28;20053;-82
2022/09/29 05:18:22;;;;;;;1.92;1.27;;;11.00;99.90;;;;;;5080936;28;20104;-82
2022/09/29 05:20:48;;;;;;;3.30;1.52;;;11.00;99.90;;;;;;5109930;28;20054;-83
2022/09/29 05:23:35;;;;;;;3.67;1.75;;;10.90;99.90;;;;;;5090175;28;20055;-82
2022/09/29 05:26:04;;;;;;;5.18;1.70;;;10.90;99.90;;;;;;5104688;28;20050;-83
2022/09/29 05:28:32;;;;;;;2.13;1.27;;;10.90;99.90;;;;;;5099686;28;20079;-83
2022/09/29 05:31:04;;;;;;;4.63;1.40;;;11.00;99.90;;;;;;5090780;28;20827;-83
2022/09/29 05:33:30;;;;;;;4.25;1.40;;;11.00;99.90;;;;;;5092592;28;20068;-82
2022/09/29 05:35:57;;;;;;;2.00;1.38;;;10.90;99.90;;;;;;5103713;28;20040;-82
2022/09/29 05:38:24;;;;;;;4.13;1.60;;;11.00;99.90;;;;;;5100417;28;20052;-82
2022/09/29 05:40:52;;;;;;;6.00;1.77;;;11.00;99.90;;;;;;5080987;28;20443;-83
2022/09/29 05:43:19;;;;;;;2.38;1.63;;;11.00;99.90;;;;;;5112422;28;20077;-83
2022/09/29 05:45:46;;;;;;;3.50;1.50;;;10.90;99.90;;;;;;5104027;28;20079;-84
2022/09/29 05:48:13;;;;;;;3.80;1.63;;;11.00;99.90;;;;;;5104172;28;20052;-81
2022/09/29 05:50:42;;;;;;;5.30;1.48;;;11.00;99.90;;;;;;5094854;28;20048;-84
2022/09/29 05:53:09;;;;;;;4.10;1.67;;;11.00;99.90;;;;;;5114359;28;20054;-83
2022/09/29 05:55:37;;;;;;;2.28;1.25;;;11.00;99.90;;;;;;5111005;28;20766;-84
2022/09/29 05:58:05;;;;;;;4.88;1.20;;;11.00;99.90;;;;;;5103047;28;20044;-83
2022/09/29 06:00:32;;;;;;;4.70;1.50;;;11.00;99.90;;;;;;5096189;28;20179;-83
2022/09/29 06:03:00;;;;;;;3.38;1.50;;;11.00;99.90;;;;;;5100478;28;20051;-84
2022/09/29 06:05:27;;;;;;;2.65;1.30;;;11.00;99.90;;;;;;5111231;28;20047;-84
2022/09/29 06:07:54;;;;;;;2.55;1.60;;;11.00;99.90;;;;;;5106634;28;20047;-84
2022/09/29 06:10:21;;;;;;;4.25;1.38;;;11.00;99.90;;;;;;5097151;28;20520;-83
2022/09/29 06:12:48;;;;;;;3.70;1.73;;;11.00;99.90;;;;;;5108526;28;20051;-83
2022/09/29 06:15:15;;;;;;;4.07;1.20;;;11.00;99.90;;;;;;5111146;28;20054;-82
2022/09/29 06:17:42;;;;;;;5.30;1.27;;;11.10;99.90;;;;;;5106816;28;20524;-83
2022/09/29 06:20:09;;;;;;;5.32;1.52;;;11.00;99.90;;;;;;5083996;28;20529;-83
2022/09/29 06:22:35;;;;;;;6.15;1.60;;;11.00;99.90;;;;;;5085137;28;20075;-83
2022/09/29 06:25:03;;;;;;;5.18;1.73;;;11.00;99.90;;;;;;5089064;28;20075;-83
2022/09/29 06:27:29;;;;;;;4.75;1.60;;;11.00;99.90;;;;;;5104039;28;20087;-83
2022/09/29 06:29:56;;;;;;;2.78;2.00;;;11.10;99.90;;;;;;5092242;28;20139;-84
2022/09/29 06:32:23;;;;;;;4.15;2.70;;;11.10;99.90;;;;;;5091281;28;20102;-83
2022/09/29 06:37:36;;;;;;;5.78;2.78;;;11.20;99.90;;;;;;5106138;28;20486;-83
2022/09/29 06:40:06;;;;;;;3.63;2.20;;;11.20;99.90;;;;;;5104575;28;20044;-84
2022/09/29 06:42:37;;;;;;;4.30;2.30;;;11.30;99.90;;;;;;5101021;28;20048;-84
2022/09/29 06:45:05;;;;;;;5.18;2.00;;;11.30;99.90;;;;;;5113602;28;20497;-84
2022/09/29 06:47:31;;;;;;;7.47;2.00;;;11.40;99.90;;;;;;5108296;28;20442;-84
2022/09/29 06:50:00;;;;;;;6.18;2.20;;;11.40;99.90;;;;;;5089845;28;20048;-84
2022/09/29 06:52:34;;;;;;;4.88;2.10;;;11.50;99.90;;;;;;5098288;28;20127;-84
2022/09/29 06:55:00;;;;;;;4.47;2.28;;;11.60;99.90;;;;;;5116090;28;20055;-83
2022/09/29 06:57:27;;;;;;;3.58;2.45;;;11.60;99.90;;;;;;5117110;28;20044;-84
2022/09/29 06:59:54;;;;;;;3.40;2.38;;;11.60;99.90;;;;;;5111514;28;20044;-84
2022/09/29 07:02:20;;;;;;;3.33;2.05;;;11.70;99.90;;;;;;5107827;28;20063;-84
2022/09/29 07:04:47;;;;;;;4.20;1.80;;;11.70;99.90;;;;;;5103706;28;20054;-84
2022/09/29 07:07:15;;;;;;;2.42;1.88;;;11.70;99.90;;;;;;5117577;28;20070;-83
2022/09/29 07:09:42;;;;;;;3.40;2.40;;;11.70;99.90;;;;;;5106478;28;20130;-85
2022/09/29 07:12:10;;;;;;;2.25;1.88;;;11.70;99.90;;;;;;5086427;28;20045;-84
2022/09/29 07:14:37;;;;;;;6.50;1.63;;;11.70;99.90;;;;;;5098039;28;20054;-84
2022/09/29 07:17:04;;;;;;;2.83;1.95;;;11.70;99.90;;;;;;5109212;28;20099;-83
2022/09/29 07:19:31;;;;;;;3.80;2.42;;;11.70;99.90;;;;;;5093774;28;20050;-84
2022/09/29 07:21:58;;;;;;;4.70;2.13;;;11.80;99.90;;;;;;5107065;28;20428;-82
2022/09/29 07:24:25;;;;;;;4.85;2.05;;;11.80;99.90;;;;;;5100706;28;20047;-83
2022/09/29 07:26:52;;;;;;;4.15;2.55;;;11.90;99.90;;;;;;5115068;28;20044;-82
2022/09/29 07:29:19;;;;;;;14.70;9.02;;;11.90;99.90;;;;;;5092509;28;20043;-83
2022/09/29 07:31:45;;;;;;;7.60;5.07;;;11.90;99.90;;;;;;5109301;28;20085;-83
2022/09/29 07:34:19;;;;;;;4.18;2.95;;;11.80;99.90;;;;;;5102359;28;20052;-83
2022/09/29 07:36:46;;;;;;;2.90;2.67;;;11.70;99.90;;;;;;5111191;28;20048;-82
2022/09/29 07:39:13;;;;;;;3.05;2.67;;;11.80;99.90;;;;;;5097394;28;20047;-83
2022/09/29 07:41:40;;;;;;;4.53;2.78;;;11.90;99.90;;;;;;5109823;28;20044;-83
2022/09/29 07:44:07;;;;;;;3.63;2.38;;;11.90;99.90;;;;;;5103720;28;20048;-83
2022/09/29 07:46:33;;;;;;;4.72;2.75;;;11.90;99.90;;;;;;5102782;28;20130;-83
2022/09/29 07:49:00;;;;;;;4.50;2.40;;;12.00;99.90;;;;;;5094168;28;20458;-83
2022/09/29 07:51:27;;;;;;;5.07;2.33;;;12.00;99.90;;;;;;5111935;28;20048;-84
2022/09/29 07:53:53;;;;;;;4.13;2.42;;;12.10;99.90;;;;;;5103220;28;20052;-83
2022/09/29 07:56:21;;;;;;;4.38;2.53;;;12.10;99.90;;;;;;5102423;28;20135;-83
2022/09/29 07:58:49;;;;;;;4.80;2.28;;;12.10;99.90;;;;;;5117402;28;20555;-84
2022/09/29 08:01:18;;;;;;;2.67;2.08;;;12.10;99.90;;;;;;5113238;28;20054;-83
2022/09/29 08:03:50;;;;;;;3.30;1.80;;;12.10;99.90;;;;;;5102931;28;20052;-82
2022/09/29 08:06:16;;;;;;;5.07;2.30;;;12.20;99.90;;;;;;5098469;28;20056;-82
2022/09/29 08:08:43;;;;;;;2.95;2.05;;;12.20;99.90;;;;;;5100436;28;20060;-84
2022/09/29 08:11:25;;;;;;;2.72;2.25;;;12.20;99.90;;;;;;5105158;28;20039;-83
2022/09/29 08:13:58;;;;;;;3.00;2.22;;;12.20;99.90;;;;;;5106570;28;20059;-84
2022/09/29 08:16:25;;;;;;;4.90;2.05;;;12.20;99.90;;;;;;5100598;28;20097;-83
2022/09/29 08:18:52;;;;;;;3.60;2.08;;;12.30;99.90;;;;;;5110483;28;20044;-83
2022/09/29 08:21:18;;;;;;;2.17;1.83;;;12.30;99.90;;;;;;5112343;28;20050;-84
2022/09/29 08:23:45;;;;;;;4.25;1.98;;;12.40;99.90;;;;;;5104497;28;20048;-80
2022/09/29 08:26:14;;;;;;;1.98;1.50;;;12.50;99.90;;;;;;5102435;28;20652;-83
2022/09/29 08:28:42;;;;;;;4.72;1.40;;;12.50;99.90;;;;;;5105584;28;20043;-84
2022/09/29 08:31:13;;;;;;;4.72;1.85;;;12.50;99.90;;;;;;5107712;28;20536;-81
2022/09/29 08:33:39;;;;;;;;;;;12.60;99.90;;;;;;5082370;28;20055;-84
2022/09/29 08:36:13;;;;;;;2.67;1.55;;;12.60;99.90;;;;;;5080356;28;19927;-83
2022/09/29 08:38:42;;;;;;;1.63;1.40;;;12.60;99.90;;;;;;5095098;28;20063;-83
2022/09/29 08:41:35;;;;;;;2.38;1.75;;;12.70;99.90;;;;;;5106703;28;20048;-83
2022/09/29 08:44:20;;;;;;;4.22;2.50;;;12.70;99.90;;;;;;5059355;28;20044;-85
2022/09/29 08:47:28;;;;;;;2.88;2.00;;;12.80;99.90;;;;;;5100217;28;20048;-83
2022/09/29 08:50:15;;;;;;;9.25;1.88;;;12.80;99.90;;;;;;5092997;28;20044;-83
2022/09/29 08:52:46;;;;;;;5.20;2.03;;;12.90;99.90;;;;;;5106305;28;20050;-84
2022/09/29 08:55:18;;;;;;;2.70;2.10;;;12.90;99.90;;;;;;5097340;28;20044;-82
2022/09/29 08:57:51;;;;;;;4.78;2.60;;;12.90;99.90;;;;;;5073224;28;20051;-83
2022/09/29 09:00:18;;;;;;;;;;;12.90;99.90;;;;;;5093687;28;20126;-84
2022/09/29 09:02:48;;;;;;;5.47;2.05;;;13.00;99.90;;;;;;5104309;28;19919;-83
2022/09/29 09:05:43;;;;;;;4.55;2.10;;;12.90;99.90;;;;;;5089793;28;20047;-84
2022/09/29 09:08:41;;;;;;;2.97;1.30;;;13.00;99.90;;;;;;5093963;28;20048;-84
2022/09/29 09:11:41;;;;;;;4.93;1.38;;;13.00;99.90;;;;;;5107822;28;20047;-83
2022/09/29 09:14:43;;;;;;;2.25;1.00;;;13.00;99.90;;;;;;5107491;28;20043;-83
2022/09/29 09:17:26;;;;;;;1.38;1.00;;;13.10;99.90;;;;;;5074211;28;20047;-85
2022/09/29 09:20:11;;;;;;;1.92;0.93;;;13.20;99.90;;;;;;5100688;28;20044;-83
2022/09/29 09:22:58;;;;;;;3.13;0.80;;;13.30;99.90;;;;;;5113453;28;20047;-83
2022/09/29 09:25:28;;;;;;;1.35;0.80;;;13.30;99.90;;;;;;5076354;28;20052;-84
2022/09/29 09:28:02;;;;;;;2.43;0.97;;;13.40;99.90;;;;;;5103080;28;20044;-84
2022/09/29 09:30:37;;;;;;;2.13;1.00;;;13.50;99.90;;;;;;5098280;28;20075;-83
2022/09/29 09:33:14;;;;;;;1.48;0.80;;;13.50;99.90;;;;;;5094682;28;20443;-84
2022/09/29 09:36:01;;;;;;;1.80;0.90;;;13.60;99.90;;;;;;5088980;28;20127;-84
2022/09/29 09:38:57;;;;;;;2.38;1.10;;;13.70;99.90;;;;;;5100376;28;20127;-85
2022/09/29 09:41:27;;;;;;;2.90;1.40;;;13.80;99.90;;;;;;5101069;28;20055;-84
2022/09/29 09:44:15;;;;;;;1.80;1.02;;;13.80;99.90;;;;;;5112265;28;20056;-85
2022/09/29 09:47:03;;;;;;;1.63;1.10;;;13.80;99.90;;;;;;5105185;28;20052;-84
2022/09/29 09:49:40;;;;;;;1.90;0.93;;;13.80;99.90;;;;;;5100290;28;20192;-83
2022/09/29 09:52:30;;;;;;;3.30;1.30;;;13.80;99.90;;;;;;5097165;28;20051;-83
2022/09/29 09:54:58;;;;;;;;;;;13.90;99.90;;;;;;5112279;28;20075;-84
2022/09/29 09:57:44;;;;;;;3.42;0.95;;;13.90;99.90;;;;;;5104556;28;19926;-84
2022/09/29 10:00:14;;;;;;;1.55;1.00;;;14.00;99.90;;;;;;5095358;28;20187;-84
2022/09/29 10:02:48;;;;;;;5.10;2.88;;;14.00;99.90;;;;;;5095932;28;20489;-81
2022/09/29 10:05:18;;;;;;;1.60;1.10;;;14.00;99.90;;;;;;5101001;28;20061;-84
2022/09/29 10:07:47;;;;;;;1.35;0.77;;;14.10;99.90;;;;;;5109209;28;20109;-86
2022/09/29 10:10:27;;;;;;;1.77;0.88;;;14.10;99.90;;;;;;5084470;28;20445;-84
2022/09/29 10:13:23;;;;;;;2.22;1.15;;;14.20;99.90;;;;;;5084143;28;20130;-85
2022/09/29 10:16:15;;;;;;;2.92;1.10;;;14.30;99.90;;;;;;5090293;28;20053;-85
2022/09/29 10:18:51;;;;;;;1.13;0.60;;;14.30;99.90;;;;;;5107237;28;20047;-85
2022/09/29 10:21:42;;;;;;;1.95;0.98;;;14.20;99.90;;;;;;5083785;28;20103;-85
2022/09/29 10:24:32;;;;;;;1.80;0.70;;;14.30;99.90;;;;;;5092374;28;20485;-86
2022/09/29 10:27:01;;;;;;;2.08;0.98;;;14.40;99.90;;;;;;5106500;28;20548;-85
2022/09/29 10:29:40;;;;;;;3.87;1.83;;;14.50;99.90;;;;;;5089578;28;20048;-85
2022/09/29 10:32:15;;;;;;;3.05;1.20;;;14.50;99.90;;;;;;5104578;28;20036;-83
2022/09/29 10:35:02;;;;;;;3.60;1.83;;;14.50;99.90;;;;;;5101162;28;20130;-84
2022/09/29 10:37:41;;;;;;;2.25;1.00;;;14.60;99.90;;;;;;5087267;28;20043;-84
2022/09/29 10:40:11;;;;;;;2.57;1.20;;;14.70;99.90;;;;;;5101411;28;20069;-83
2022/09/29 10:42:42;;;;;;;1.67;0.85;;;14.80;99.90;;;;;;5084333;28;20636;-84
2022/09/29 10:45:12;;;;;;;;;;;14.80;99.90;;;;;;5088244;28;20040;-83
2022/09/29 10:47:41;;;;;;;0.75;0.68;;;14.90;99.90;;;;;;5074495;28;19923;-84
2022/09/29 10:50:20;;;;;;;2.53;1.00;;;14.80;99.90;;;;;;5105694;28;20052;-83
2022/09/29 10:52:55;;;;;;;1.45;0.90;;;14.90;99.90;;;;;;5067248;28;20045;-83
2022/09/29 10:55:26;;;;;;;1.98;0.80;;;15.00;99.90;;;;;;5085754;28;20070;-83
2022/09/29 10:57:58;;;;;;;1.45;0.70;;;15.10;99.90;;;;;;5106486;28;20385;-83
2022/09/29 11:00:27;;;;;;;1.73;1.10;;;15.20;99.90;;;;;;5107074;28;20121;-83
2022/09/29 11:03:05;;;;;;;1.52;1.00;;;15.30;99.90;;;;;;5084013;28;20124;-83
2022/09/29 11:05:33;;;;;;;1.52;0.90;;;15.30;99.90;;;;;;5081981;28;20438;-83
2022/09/29 11:08:01;;;;;;;1.00;0.70;;;15.40;99.90;;;;;;5093425;28;20471;-84
2022/09/29 11:10:30;;;;;;;1.25;0.80;;;15.30;99.90;;;;;;5107504;28;20548;-83
2022/09/29 11:12:59;;;;;;;2.45;0.93;;;15.30;99.90;;;;;;5082767;28;20041;-84
2022/09/29 11:15:40;;;;;;;1.10;0.70;;;15.30;99.90;;;;;;5094996;28;20051;-84
2022/09/29 11:18:26;;;;;;;2.15;0.90;;;15.30;99.90;;;;;;5105723;28;20104;-84
2022/09/29 11:21:20;;;;;;;1.05;0.90;;;15.20;99.90;;;;;;5106871;28;20489;-84
2022/09/29 11:23:56;;;;;;;1.48;0.93;;;15.20;99.90;;;;;;5082724;28;20055;-84
2022/09/29 11:26:47;;;;;;;1.05;0.90;;;15.20;99.90;;;;;;5083703;28;20139;-84
2022/09/29 11:29:31;;;;;;;1.98;1.15;;;15.20;99.90;;;;;;5093669;28;20048;-84
2022/09/29 11:32:09;;;;;;;4.78;1.25;;;15.20;99.90;;;;;;5105878;28;20525;-84
2022/09/29 11:34:57;;;;;;;7.18;0.82;;;15.30;99.90;;;;;;5078690;28;20075;-83
2022/09/29 11:37:58;;;;;;;1.58;0.93;;;15.30;99.90;;;;;;5087965;28;20481;-84
2022/09/29 11:40:51;;;;;;;1.58;0.95;;;15.40;99.90;;;;;;5061412;28;20055;-84
2022/09/29 11:43:23;;;;;;;;;;;15.30;99.90;;;;;;5075865;28;20052;-83
2022/09/29 11:46:13;;;;;;;1.15;1.05;;;15.40;99.90;;;;;;5086579;28;20269;-83
2022/09/29 11:49:03;;;;;;;2.67;1.33;;;15.40;99.90;;;;;;5095371;28;20101;-83
2022/09/29 11:51:36;;;;;;;2.13;0.93;;;15.30;99.90;;;;;;5070705;28;20058;-83
2022/09/29 11:54:25;;;;;;;1.33;1.00;;;15.30;99.90;;;;;;5072830;28;20050;-84
2022/09/29 11:56:57;;;;;;;1.20;1.05;;;15.40;99.90;;;;;;5080203;28;20489;-82
2022/09/29 11:59:35;;;;;;;3.47;1.45;;;15.40;99.90;;;;;;5095344;28;20040;-83
2022/09/29 12:02:41;;;;;;;0.73;0.73;;;15.50;99.90;;;;;;5112222;28;20127;-84
2022/09/29 12:05:32;;;;;;;1.30;0.90;;;15.60;99.90;;;;;;5070201;28;20052;-84
2022/09/29 12:08:22;;;;;;;2.90;0.98;;;15.70;99.90;;;;;;5084275;28;20051;-85
2022/09/29 12:10:59;;;;;;;1.35;1.00;;;15.70;99.90;;;;;;5096030;28;20051;-83
2022/09/29 12:14:02;;;;;;;2.03;1.33;;;15.80;99.90;;;;;;5081058;28;20135;-83
2022/09/29 12:16:40;;;;;;;2.40;1.00;;;15.80;99.90;;;;;;5100345;28;20466;-84
2022/09/29 12:19:19;;;;;;;2.45;1.50;;;15.90;99.90;;;;;;5090737;28;20040;-83
2022/09/29 12:21:54;;;;;;;1.92;1.35;;;15.80;99.90;;;;;;5086725;28;20048;-82
2022/09/29 12:24:29;;;;;;;1.17;1.00;;;15.90;99.90;;;;;;5093043;28;20116;-83
2022/09/29 12:27:18;;;;;;;2.00;1.20;;;15.90;99.90;;;;;;5087070;28;20048;-83
2022/09/29 12:30:01;;;;;;;1.80;1.10;;;15.90;99.90;;;;;;5088316;28;20055;-84
2022/09/29 12:32:52;;;;;;;1.65;0.93;;;15.90;99.90;;;;;;5108840;28;20410;-84
2022/09/29 12:35:34;;;;;;;2.28;1.10;;;15.90;99.90;;;;;;5068876;28;20075;-84
2022/09/29 12:38:14;;;;;;;1.63;0.82;;;15.80;99.90;;;;;;5084651;28;20097;-84
2022/09/29 12:41:13;;;;;;;1.50;0.93;;;15.80;99.90;;;;;;5083360;28;20067;-83
2022/09/29 12:43:51;;;;;;;1.63;1.40;;;15.70;99.90;;;;;;5090683;28;20309;-84
2022/09/29 12:46:27;;;;;;;3.85;1.10;;;15.70;99.90;;;;;;5085007;28;20524;-84
2022/09/29 12:49:08;;;;;;;2.40;0.90;;;15.80;99.90;;;;;;5083803;28;20123;-83
2022/09/29 12:51:46;;;;;;;1.63;0.88;;;15.70;99.90;;;;;;5115322;28;20055;-84
2022/09/29 12:54:24;;;;;;;2.45;0.90;;;15.60;99.90;;;;;;5093329;28;20069;-84
2022/09/29 12:56:54;;;;;;;3.65;1.10;;;15.70;99.90;;;;;;5072296;28;20066;-84
2022/09/29 12:59:38;;;;;;;2.20;1.23;;;15.70;99.90;;;;;;5085502;28;20052;-85
2022/09/29 13:02:20;;;;;;;2.25;1.02;;;15.70;99.90;;;;;;5079480;28;20080;-85
2022/09/29 13:05:15;;;;;;;1.05;0.90;;;15.60;99.90;;;;;;5093483;28;20104;-85
2022/09/29 13:08:00;;;;;;;8.80;1.20;;;15.50;99.90;;;;;;5106463;28;20089;-85
2022/09/29 13:10:56;;;;;;;2.25;0.93;;;15.40;99.90;;;;;;5083610;28;20102;-84
2022/09/29 13:13:42;;;;;;;2.38;0.90;;;15.40;99.90;;;;;;5094405;28;20067;-84
2022/09/29 13:16:20;;;;;;;3.15;1.00;;;15.40;99.90;;;;;;5073455;28;20109;-84
2022/09/29 13:19:02;;;;;;;0.55;0.55;;;15.40;99.90;;;;;;5077131;28;20044;-83
2022/09/29 13:21:55;;;;;;;1.80;0.90;;;15.50;99.90;;;;;;5087393;28;20048;-87
2022/09/29 13:25:05;;;;;;;5.35;1.08;;;15.40;99.90;;;;;;5113321;28;20044;-83